sensor_id;sensor_type;location;lat;lon;timestamp;temperature;humidity
5899;DHT22;2975;50.956;6.962;2023-05-09T00:00:36;15.80;99.90
5899;DHT22;2975;50.956;6.962;2023-05-09T00:03:02;15.80;99.90
5899;DHT22;2975;50.956;6.962;2023-05-09T00:05:30;15.80;99.90
5899;DHT22;2975;50.956;6.962;2023-05-09T00:07:56;15.80;99.90
5899;DHT22;2975;50.956;6.962;2023-05-09T00:10:22;15.70;99.90
5899;DHT22;2975;50.956;6.962;2023-05-09T00:12:47;15.60;99.90
5899;DHT22;2975;50.956;6.962;2023-05-09T00:15:14;15.60;99.90
5899;DHT22;2975;50.956;6.962;2023-05-09T00:17:39;15.50;99.90
5899;DHT22;2975;50.956;6.962;2023-05-09T00:20:08;15.50;99.90
5899;DHT22;2975;50.956;6.962;2023-05-09T00:22:37;15.40;99.90
5899;DHT22;2975;50.956;6.962;2023-05-09T00:25:05;15.40;99.90
5899;DHT22;2975;50.956;6.962;2023-05-09T00:27:31;15.40;99.90
5899;DHT22;2975;50.956;6.962;2023-05-09T00:29:56;15.40;99.90
5899;DHT22;2975;50.956;6.962;2023-05-09T00:32:22;15.40;99.90
5899;DHT22;2975;50.956;6.962;2023-05-09T00:34:49;15.40;99.90
5899;DHT22;2975;50.956;6.962;2023-05-09T00:37:15;15.50;99.90
5899;DHT22;2975;50.956;6.962;2023-05-09T00:39:42;15.50;99.90
5899;DHT22;2975;50.956;6.962;2023-05-09T00:42:08;15.50;99.90
5899;DHT22;2975;50.956;6.962;2023-05-09T00:44:33;15.50;99.90
5899;DHT22;2975;50.956;6.962;2023-05-09T00:46:59;15.50;99.90
5899;DHT22;2975;50.956;6.962;2023-05-09T00:49:25;15.50;99.90
5899;DHT22;2975;50.956;6.962;2023-05-09T00:51:50;15.60;99.90
5899;DHT22;2975;50.956;6.962;2023-05-09T00:54:17;15.60;99.90
5899;DHT22;2975;50.956;6.962;2023-05-09T00:56:42;15.60;99.90
5899;DHT22;2975;50.956;6.962;2023-05-09T00:59:08;15.60;99.90
5899;DHT22;2975;50.956;6.962;2023-05-09T01:01:34;15.60;99.90
5899;DHT22;2975;50.956;6.962;2023-05-09T01:03:59;15.70;99.90
5899;DHT22;2975;50.956;6.962;2023-05-09T01:12:15;15.80;99.90
5899;DHT22;2975;50.956;6.962;2023-05-09T01:15:02;15.80;99.90
5899;DHT22;2975;50.956;6.962;2023-05-09T01:20:43;15.90;99.90
5899;DHT22;2975;50.956;6.962;2023-05-09T01:31:43;16.10;99.90
5899;DHT22;2975;50.956;6.962;2023-05-09T01:34:10;16.00;99.90
5899;DHT22;2975;50.956;6.962;2023-05-09T01:36:39;16.00;99.90
5899;DHT22;2975;50.956;6.962;2023-05-09T01:39:10;16.10;99.90
5899;DHT22;2975;50.956;6.962;2023-05-09T01:41:37;16.10;99.90
5899;DHT22;2975;50.956;6.962;2023-05-09T01:44:05;16.10;99.90
5899;DHT22;2975;50.956;6.962;2023-05-09T01:46:33;16.10;99.90
5899;DHT22;2975;50.956;6.962;2023-05-09T01:49:01;16.10;99.90
5899;DHT22;2975;50.956;6.962;2023-05-09T01:51:27;16.10;99.90
5899;DHT22;2975;50.956;6.962;2023-05-09T01:53:56;16.10;99.90
5899;DHT22;2975;50.956;6.962;2023-05-09T01:56:23;16.20;99.90
5899;DHT22;2975;50.956;6.962;2023-05-09T01:58:51;16.30;99.90
5899;DHT22;2975;50.956;6.962;2023-05-09T02:01:18;16.30;99.90
5899;DHT22;2975;50.956;6.962;2023-05-09T02:03:45;16.30;99.90
5899;DHT22;2975;50.956;6.962;2023-05-09T02:06:12;16.30;99.90
5899;DHT22;2975;50.956;6.962;2023-05-09T02:08:39;16.30;99.90
5899;DHT22;2975;50.956;6.962;2023-05-09T02:11:06;16.20;99.90
5899;DHT22;2975;50.956;6.962;2023-05-09T02:13:32;16.10;99.90
5899;DHT22;2975;50.956;6.962;2023-05-09T02:15:58;16.10;99.90
5899;DHT22;2975;50.956;6.962;2023-05-09T02:18:25;16.00;99.90
5899;DHT22;2975;50.956;6.962;2023-05-09T02:20:51;16.00;99.90
5899;DHT22;2975;50.956;6.962;2023-05-09T02:23:17;16.00;99.90
5899;DHT22;2975;50.956;6.962;2023-05-09T02:25:44;16.10;99.90
5899;DHT22;2975;50.956;6.962;2023-05-09T02:28:10;16.10;99.90
5899;DHT22;2975;50.956;6.962;2023-05-09T02:30:40;16.20;99.90
5899;DHT22;2975;50.956;6.962;2023-05-09T02:33:07;16.20;99.90
5899;DHT22;2975;50.956;6.962;2023-05-09T02:35:35;16.20;99.90
5899;DHT22;2975;50.956;6.962;2023-05-09T02:38:02;16.20;99.90
5899;DHT22;2975;50.956;6.962;2023-05-09T02:40:28;16.10;99.90
5899;DHT22;2975;50.956;6.962;2023-05-09T02:42:55;16.10;99.90
5899;DHT22;2975;50.956;6.962;2023-05-09T02:45:21;16.00;99.90
5899;DHT22;2975;50.956;6.962;2023-05-09T02:47:46;16.00;99.90
5899;DHT22;2975;50.956;6.962;2023-05-09T02:50:12;16.10;99.90
5899;DHT22;2975;50.956;6.962;2023-05-09T02:52:37;16.10;99.90
5899;DHT22;2975;50.956;6.962;2023-05-09T02:55:03;16.10;99.90
5899;DHT22;2975;50.956;6.962;2023-05-09T02:57:30;16.20;99.90
5899;DHT22;2975;50.956;6.962;2023-05-09T02:59:55;16.10;99.90
5899;DHT22;2975;50.956;6.962;2023-05-09T03:02:21;16.00;99.90
5899;DHT22;2975;50.956;6.962;2023-05-09T03:04:48;16.00;99.90
5899;DHT22;2975;50.956;6.962;2023-05-09T03:07:14;16.00;99.90
5899;DHT22;2975;50.956;6.962;2023-05-09T03:09:40;16.00;99.90
5899;DHT22;2975;50.956;6.962;2023-05-09T03:12:05;15.90;99.90
5899;DHT22;2975;50.956;6.962;2023-05-09T03:14:31;15.90;99.90
5899;DHT22;2975;50.956;6.962;2023-05-09T03:16:57;15.90;99.90
5899;DHT22;2975;50.956;6.962;2023-05-09T03:19:22;15.80;99.90
5899;DHT22;2975;50.956;6.962;2023-05-09T03:21:48;15.80;99.90
5899;DHT22;2975;50.956;6.962;2023-05-09T03:24:14;15.80;99.90
5899;DHT22;2975;50.956;6.962;2023-05-09T03:26:39;15.80;99.90
5899;DHT22;2975;50.956;6.962;2023-05-09T03:29:05;15.80;99.90
5899;DHT22;2975;50.956;6.962;2023-05-09T03:31:31;15.80;99.90
5899;DHT22;2975;50.956;6.962;2023-05-09T03:33:56;15.90;99.90
5899;DHT22;2975;50.956;6.962;2023-05-09T03:36:22;15.90;99.90
5899;DHT22;2975;50.956;6.962;2023-05-09T03:38:48;15.90;99.90
5899;DHT22;2975;50.956;6.962;2023-05-09T03:41:16;15.90;99.90
5899;DHT22;2975;50.956;6.962;2023-05-09T03:43:43;15.90;99.90
5899;DHT22;2975;50.956;6.962;2023-05-09T03:46:08;15.80;99.90
5899;DHT22;2975;50.956;6.962;2023-05-09T03:48:34;15.80;99.90
5899;DHT22;2975;50.956;6.962;2023-05-09T03:51:00;15.80;99.90
5899;DHT22;2975;50.956;6.962;2023-05-09T03:53:25;15.70;99.90
5899;DHT22;2975;50.956;6.962;2023-05-09T03:55:51;15.80;99.90
5899;DHT22;2975;50.956;6.962;2023-05-09T03:58:16;15.80;99.90
5899;DHT22;2975;50.956;6.962;2023-05-09T04:00:43;15.90;99.90
5899;DHT22;2975;50.956;6.962;2023-05-09T04:03:09;15.90;99.90
5899;DHT22;2975;50.956;6.962;2023-05-09T04:05:35;16.00;99.90
5899;DHT22;2975;50.956;6.962;2023-05-09T04:08:04;16.00;99.90
5899;DHT22;2975;50.956;6.962;2023-05-09T04:10:30;16.00;99.90
5899;DHT22;2975;50.956;6.962;2023-05-09T04:12:57;16.00;99.90
5899;DHT22;2975;50.956;6.962;2023-05-09T04:15:22;16.00;99.90
5899;DHT22;2975;50.956;6.962;2023-05-09T04:17:48;16.00;99.90
5899;DHT22;2975;50.956;6.962;2023-05-09T04:20:14;16.10;99.90
5899;DHT22;2975;50.956;6.962;2023-05-09T04:22:39;16.10;99.90
5899;DHT22;2975;50.956;6.962;2023-05-09T04:25:05;16.00;99.90
5899;DHT22;2975;50.956;6.962;2023-05-09T04:27:31;16.00;99.90
5899;DHT22;2975;50.956;6.962;2023-05-09T04:29:57;16.00;99.90
5899;DHT22;2975;50.956;6.962;2023-05-09T04:32:22;16.00;99.90
5899;DHT22;2975;50.956;6.962;2023-05-09T04:34:48;16.00;99.90
5899;DHT22;2975;50.956;6.962;2023-05-09T04:37:14;15.90;99.90
5899;DHT22;2975;50.956;6.962;2023-05-09T04:39:40;15.90;99.90
5899;DHT22;2975;50.956;6.962;2023-05-09T04:42:05;15.90;99.90
5899;DHT22;2975;50.956;6.962;2023-05-09T04:44:31;15.90;99.90
5899;DHT22;2975;50.956;6.962;2023-05-09T04:46:57;15.90;99.90
5899;DHT22;2975;50.956;6.962;2023-05-09T04:49:23;15.90;99.90
5899;DHT22;2975;50.956;6.962;2023-05-09T04:51:50;15.90;99.90
5899;DHT22;2975;50.956;6.962;2023-05-09T04:54:15;15.90;99.90
5899;DHT22;2975;50.956;6.962;2023-05-09T04:56:41;15.90;99.90
5899;DHT22;2975;50.956;6.962;2023-05-09T04:59:07;15.90;99.90
5899;DHT22;2975;50.956;6.962;2023-05-09T05:01:32;15.90;99.90
5899;DHT22;2975;50.956;6.962;2023-05-09T05:03:58;15.90;99.90
5899;DHT22;2975;50.956;6.962;2023-05-09T05:06:24;15.90;99.90
5899;DHT22;2975;50.956;6.962;2023-05-09T05:08:49;16.00;99.90
5899;DHT22;2975;50.956;6.962;2023-05-09T05:11:15;16.10;99.90
5899;DHT22;2975;50.956;6.962;2023-05-09T05:13:42;16.20;99.90
5899;DHT22;2975;50.956;6.962;2023-05-09T05:16:08;16.40;99.90
5899;DHT22;2975;50.956;6.962;2023-05-09T05:18:34;16.50;99.90
5899;DHT22;2975;50.956;6.962;2023-05-09T05:21:00;16.70;99.90
5899;DHT22;2975;50.956;6.962;2023-05-09T05:23:25;16.80;99.90
5899;DHT22;2975;50.956;6.962;2023-05-09T05:25:51;16.90;99.90
5899;DHT22;2975;50.956;6.962;2023-05-09T05:28:17;17.10;99.90
5899;DHT22;2975;50.956;6.962;2023-05-09T05:30:42;17.20;99.90
5899;DHT22;2975;50.956;6.962;2023-05-09T05:33:08;17.50;99.90
5899;DHT22;2975;50.956;6.962;2023-05-09T05:35:33;17.80;99.90
5899;DHT22;2975;50.956;6.962;2023-05-09T05:37:59;18.00;99.90
5899;DHT22;2975;50.956;6.962;2023-05-09T05:40:25;18.10;99.90
5899;DHT22;2975;50.956;6.962;2023-05-09T05:42:51;18.30;99.90
5899;DHT22;2975;50.956;6.962;2023-05-09T05:45:16;18.50;99.90
5899;DHT22;2975;50.956;6.962;2023-05-09T05:47:42;18.70;99.90
5899;DHT22;2975;50.956;6.962;2023-05-09T05:50:08;18.80;99.90
5899;DHT22;2975;50.956;6.962;2023-05-09T05:52:37;18.90;99.90
5899;DHT22;2975;50.956;6.962;2023-05-09T05:55:03;18.80;99.90
5899;DHT22;2975;50.956;6.962;2023-05-09T05:57:29;18.70;99.90
5899;DHT22;2975;50.956;6.962;2023-05-09T05:59:55;18.70;99.90
5899;DHT22;2975;50.956;6.962;2023-05-09T06:02:20;18.70;99.90
5899;DHT22;2975;50.956;6.962;2023-05-09T06:04:46;18.70;99.90
5899;DHT22;2975;50.956;6.962;2023-05-09T06:07:12;18.70;99.90
5899;DHT22;2975;50.956;6.962;2023-05-09T06:09:38;18.90;99.90
5899;DHT22;2975;50.956;6.962;2023-05-09T06:12:04;19.20;99.90
5899;DHT22;2975;50.956;6.962;2023-05-09T06:14:30;19.80;99.90
5899;DHT22;2975;50.956;6.962;2023-05-09T06:16:57;20.40;99.90
5899;DHT22;2975;50.956;6.962;2023-05-09T06:19:23;20.70;99.90
5899;DHT22;2975;50.956;6.962;2023-05-09T06:21:48;20.90;99.90
5899;DHT22;2975;50.956;6.962;2023-05-09T06:24:14;20.90;99.90
5899;DHT22;2975;50.956;6.962;2023-05-09T06:26:40;20.90;99.90
5899;DHT22;2975;50.956;6.962;2023-05-09T06:29:05;20.90;99.90
5899;DHT22;2975;50.956;6.962;2023-05-09T06:31:32;20.70;99.90
5899;DHT22;2975;50.956;6.962;2023-05-09T06:34:00;20.50;99.90
5899;DHT22;2975;50.956;6.962;2023-05-09T06:36:25;20.70;99.90
5899;DHT22;2975;50.956;6.962;2023-05-09T06:38:51;20.80;99.90
5899;DHT22;2975;50.956;6.962;2023-05-09T06:41:17;20.90;99.90
5899;DHT22;2975;50.956;6.962;2023-05-09T06:43:42;21.10;99.90
5899;DHT22;2975;50.956;6.962;2023-05-09T06:46:08;21.40;99.90
5899;DHT22;2975;50.956;6.962;2023-05-09T06:48:33;21.70;99.90
5899;DHT22;2975;50.956;6.962;2023-05-09T06:50:59;21.70;99.90
5899;DHT22;2975;50.956;6.962;2023-05-09T06:53:24;21.60;99.90
5899;DHT22;2975;50.956;6.962;2023-05-09T06:55:50;21.80;99.90
5899;DHT22;2975;50.956;6.962;2023-05-09T06:58:16;22.00;99.90
5899;DHT22;2975;50.956;6.962;2023-05-09T07:00:41;21.90;99.90
5899;DHT22;2975;50.956;6.962;2023-05-09T07:03:07;22.20;99.90
5899;DHT22;2975;50.956;6.962;2023-05-09T07:05:33;22.30;99.90
5899;DHT22;2975;50.956;6.962;2023-05-09T07:07:59;22.20;99.90
5899;DHT22;2975;50.956;6.962;2023-05-09T07:10:25;22.40;99.90
5899;DHT22;2975;50.956;6.962;2023-05-09T07:12:51;22.90;99.90
5899;DHT22;2975;50.956;6.962;2023-05-09T07:15:16;23.00;99.90
5899;DHT22;2975;50.956;6.962;2023-05-09T07:17:42;22.90;99.90
5899;DHT22;2975;50.956;6.962;2023-05-09T07:20:08;23.40;99.50
5899;DHT22;2975;50.956;6.962;2023-05-09T07:22:33;24.00;97.60
5899;DHT22;2975;50.956;6.962;2023-05-09T07:24:59;24.10;97.30
5899;DHT22;2975;50.956;6.962;2023-05-09T07:27:25;24.20;96.50
5899;DHT22;2975;50.956;6.962;2023-05-09T07:29:50;24.00;96.60
5899;DHT22;2975;50.956;6.962;2023-05-09T07:32:17;23.90;96.90
5899;DHT22;2975;50.956;6.962;2023-05-09T07:34:42;23.70;96.90
5899;DHT22;2975;50.956;6.962;2023-05-09T07:37:08;23.40;97.20
5899;DHT22;2975;50.956;6.962;2023-05-09T07:39:34;23.10;96.70
5899;DHT22;2975;50.956;6.962;2023-05-09T07:41:59;23.00;97.20
5899;DHT22;2975;50.956;6.962;2023-05-09T07:44:25;23.00;97.30
5899;DHT22;2975;50.956;6.962;2023-05-09T07:46:50;22.80;96.90
5899;DHT22;2975;50.956;6.962;2023-05-09T07:49:16;22.80;97.20
5899;DHT22;2975;50.956;6.962;2023-05-09T07:51:41;23.10;97.00
5899;DHT22;2975;50.956;6.962;2023-05-09T07:54:07;23.60;95.70
5899;DHT22;2975;50.956;6.962;2023-05-09T07:56:34;24.00;94.90
5899;DHT22;2975;50.956;6.962;2023-05-09T07:59:00;24.10;95.00
5899;DHT22;2975;50.956;6.962;2023-05-09T08:01:27;24.30;94.20
5899;DHT22;2975;50.956;6.962;2023-05-09T08:03:53;24.60;93.10
5899;DHT22;2975;50.956;6.962;2023-05-09T08:06:19;24.70;92.50
5899;DHT22;2975;50.956;6.962;2023-05-09T08:08:44;24.90;91.10
5899;DHT22;2975;50.956;6.962;2023-05-09T08:11:10;24.50;92.20
5899;DHT22;2975;50.956;6.962;2023-05-09T08:13:35;24.00;92.50
5899;DHT22;2975;50.956;6.962;2023-05-09T08:16:01;23.60;93.20
5899;DHT22;2975;50.956;6.962;2023-05-09T08:18:27;23.50;93.70
5899;DHT22;2975;50.956;6.962;2023-05-09T08:20:52;23.30;92.60
5899;DHT22;2975;50.956;6.962;2023-05-09T08:23:18;23.20;92.60
5899;DHT22;2975;50.956;6.962;2023-05-09T08:25:43;23.10;93.00
5899;DHT22;2975;50.956;6.962;2023-05-09T08:28:09;23.30;93.20
5899;DHT22;2975;50.956;6.962;2023-05-09T08:30:35;23.50;92.60
5899;DHT22;2975;50.956;6.962;2023-05-09T08:33:01;23.80;91.10
5899;DHT22;2975;50.956;6.962;2023-05-09T08:35:26;23.80;91.40
5899;DHT22;2975;50.956;6.962;2023-05-09T08:37:52;23.50;91.40
5899;DHT22;2975;50.956;6.962;2023-05-09T08:40:17;23.40;91.60
5899;DHT22;2975;50.956;6.962;2023-05-09T08:42:44;23.50;92.00
5899;DHT22;2975;50.956;6.962;2023-05-09T08:45:13;23.20;91.40
5899;DHT22;2975;50.956;6.962;2023-05-09T08:47:40;23.00;91.90
5899;DHT22;2975;50.956;6.962;2023-05-09T08:50:07;23.00;91.60
5899;DHT22;2975;50.956;6.962;2023-05-09T08:52:34;23.30;91.00
5899;DHT22;2975;50.956;6.962;2023-05-09T08:55:01;23.20;90.00
5899;DHT22;2975;50.956;6.962;2023-05-09T08:57:31;23.40;90.50
5899;DHT22;2975;50.956;6.962;2023-05-09T08:59:58;23.40;90.40
5899;DHT22;2975;50.956;6.962;2023-05-09T09:02:24;23.70;88.00
5899;DHT22;2975;50.956;6.962;2023-05-09T09:04:49;23.80;87.30
5899;DHT22;2975;50.956;6.962;2023-05-09T09:07:16;23.80;87.70
5899;DHT22;2975;50.956;6.962;2023-05-09T09:09:46;23.40;86.70
5899;DHT22;2975;50.956;6.962;2023-05-09T09:12:14;23.30;89.30
5899;DHT22;2975;50.956;6.962;2023-05-09T09:14:46;23.30;90.30
5899;DHT22;2975;50.956;6.962;2023-05-09T09:17:14;23.20;90.20
5899;DHT22;2975;50.956;6.962;2023-05-09T09:19:42;23.40;90.00
5899;DHT22;2975;50.956;6.962;2023-05-09T09:22:12;23.60;89.20
5899;DHT22;2975;50.956;6.962;2023-05-09T09:24:39;23.70;90.00
5899;DHT22;2975;50.956;6.962;2023-05-09T09:27:06;23.80;89.80
5899;DHT22;2975;50.956;6.962;2023-05-09T09:29:32;24.00;88.70
5899;DHT22;2975;50.956;6.962;2023-05-09T09:32:02;24.10;89.20
5899;DHT22;2975;50.956;6.962;2023-05-09T09:34:28;24.00;87.80
5899;DHT22;2975;50.956;6.962;2023-05-09T09:36:54;24.20;86.60
5899;DHT22;2975;50.956;6.962;2023-05-09T09:39:20;24.50;86.40
5899;DHT22;2975;50.956;6.962;2023-05-09T09:41:48;24.80;85.40
5899;DHT22;2975;50.956;6.962;2023-05-09T09:44:16;25.00;83.30
5899;DHT22;2975;50.956;6.962;2023-05-09T09:49:12;25.00;85.00
5899;DHT22;2975;50.956;6.962;2023-05-09T09:51:38;25.20;85.30
5899;DHT22;2975;50.956;6.962;2023-05-09T09:54:06;25.70;82.30
5899;DHT22;2975;50.956;6.962;2023-05-09T09:56:46;25.90;81.50
5899;DHT22;2975;50.956;6.962;2023-05-09T09:59:17;26.30;79.90
5899;DHT22;2975;50.956;6.962;2023-05-09T10:04:22;26.20;79.70
5899;DHT22;2975;50.956;6.962;2023-05-09T10:06:56;25.80;80.70
5899;DHT22;2975;50.956;6.962;2023-05-09T10:09:22;25.50;81.80
5899;DHT22;2975;50.956;6.962;2023-05-09T10:11:49;25.10;81.40
5899;DHT22;2975;50.956;6.962;2023-05-09T10:14:22;24.90;82.40
5899;DHT22;2975;50.956;6.962;2023-05-09T10:16:49;24.80;82.40
5899;DHT22;2975;50.956;6.962;2023-05-09T10:19:19;25.10;82.20
5899;DHT22;2975;50.956;6.962;2023-05-09T10:21:54;25.50;80.20
5899;DHT22;2975;50.956;6.962;2023-05-09T10:24:32;25.90;79.60
5899;DHT22;2975;50.956;6.962;2023-05-09T10:27:02;25.90;80.40
5899;DHT22;2975;50.956;6.962;2023-05-09T10:29:34;26.30;77.50
5899;DHT22;2975;50.956;6.962;2023-05-09T10:32:10;26.30;78.40
5899;DHT22;2975;50.956;6.962;2023-05-09T10:34:37;26.40;76.80
5899;DHT22;2975;50.956;6.962;2023-05-09T10:37:05;26.60;76.00
5899;DHT22;2975;50.956;6.962;2023-05-09T10:39:32;26.50;77.40
5899;DHT22;2975;50.956;6.962;2023-05-09T10:41:59;26.10;77.10
5899;DHT22;2975;50.956;6.962;2023-05-09T10:44:25;26.20;76.60
5899;DHT22;2975;50.956;6.962;2023-05-09T10:46:52;26.40;78.10
5899;DHT22;2975;50.956;6.962;2023-05-09T10:49:18;26.40;77.40
5899;DHT22;2975;50.956;6.962;2023-05-09T10:51:44;26.30;77.60
5899;DHT22;2975;50.956;6.962;2023-05-09T10:54:13;26.00;77.90
5899;DHT22;2975;50.956;6.962;2023-05-09T10:56:40;25.80;79.40
5899;DHT22;2975;50.956;6.962;2023-05-09T11:01:58;26.10;77.20
5899;DHT22;2975;50.956;6.962;2023-05-09T11:04:25;26.30;76.70
5899;DHT22;2975;50.956;6.962;2023-05-09T11:06:51;26.50;76.60
5899;DHT22;2975;50.956;6.962;2023-05-09T11:11:57;26.60;75.30
5899;DHT22;2975;50.956;6.962;2023-05-09T11:14:29;26.40;77.00
5899;DHT22;2975;50.956;6.962;2023-05-09T11:17:06;26.20;78.10
5899;DHT22;2975;50.956;6.962;2023-05-09T11:19:56;26.60;74.90
5899;DHT22;2975;50.956;6.962;2023-05-09T11:22:29;26.70;74.80
5899;DHT22;2975;50.956;6.962;2023-05-09T11:25:06;26.80;74.60
5899;DHT22;2975;50.956;6.962;2023-05-09T11:27:49;26.80;74.50
5899;DHT22;2975;50.956;6.962;2023-05-09T11:30:19;26.80;75.10
5899;DHT22;2975;50.956;6.962;2023-05-09T11:32:46;26.70;75.20
5899;DHT22;2975;50.956;6.962;2023-05-09T11:37:48;26.90;74.30
5899;DHT22;2975;50.956;6.962;2023-05-09T11:40:18;26.70;74.70
5899;DHT22;2975;50.956;6.962;2023-05-09T11:42:47;26.70;75.20
5899;DHT22;2975;50.956;6.962;2023-05-09T11:45:15;26.90;74.80
5899;DHT22;2975;50.956;6.962;2023-05-09T11:47:40;27.10;74.00
5899;DHT22;2975;50.956;6.962;2023-05-09T11:50:11;27.40;73.90
5899;DHT22;2975;50.956;6.962;2023-05-09T11:52:37;27.40;74.10
5899;DHT22;2975;50.956;6.962;2023-05-09T11:55:08;27.30;72.20
5899;DHT22;2975;50.956;6.962;2023-05-09T11:57:38;27.30;73.00
5899;DHT22;2975;50.956;6.962;2023-05-09T12:00:04;27.20;73.00
5899;DHT22;2975;50.956;6.962;2023-05-09T12:02:30;26.90;75.20
5899;DHT22;2975;50.956;6.962;2023-05-09T12:05:05;26.90;75.00
5899;DHT22;2975;50.956;6.962;2023-05-09T12:07:31;27.30;72.90
5899;DHT22;2975;50.956;6.962;2023-05-09T12:09:57;27.40;71.90
5899;DHT22;2975;50.956;6.962;2023-05-09T12:12:22;27.30;72.90
5899;DHT22;2975;50.956;6.962;2023-05-09T12:14:48;27.40;73.00
5899;DHT22;2975;50.956;6.962;2023-05-09T12:17:14;27.40;71.80
5899;DHT22;2975;50.956;6.962;2023-05-09T12:19:39;27.30;72.30
5899;DHT22;2975;50.956;6.962;2023-05-09T12:22:05;27.30;71.90
5899;DHT22;2975;50.956;6.962;2023-05-09T12:24:34;27.10;72.70
5899;DHT22;2975;50.956;6.962;2023-05-09T12:27:00;26.70;73.80
5899;DHT22;2975;50.956;6.962;2023-05-09T12:29:26;26.50;74.90
5899;DHT22;2975;50.956;6.962;2023-05-09T12:31:53;26.60;74.70
5899;DHT22;2975;50.956;6.962;2023-05-09T12:34:18;26.70;74.60
5899;DHT22;2975;50.956;6.962;2023-05-09T12:36:45;26.70;74.10
5899;DHT22;2975;50.956;6.962;2023-05-09T12:39:18;26.50;74.80
5899;DHT22;2975;50.956;6.962;2023-05-09T12:41:50;26.50;74.50
5899;DHT22;2975;50.956;6.962;2023-05-09T12:44:24;26.40;74.30
5899;DHT22;2975;50.956;6.962;2023-05-09T12:46:58;26.20;74.90
5899;DHT22;2975;50.956;6.962;2023-05-09T12:49:24;26.00;75.60
5899;DHT22;2975;50.956;6.962;2023-05-09T12:51:51;26.10;76.00
5899;DHT22;2975;50.956;6.962;2023-05-09T12:54:28;26.20;76.00
5899;DHT22;2975;50.956;6.962;2023-05-09T12:56:56;26.50;75.80
5899;DHT22;2975;50.956;6.962;2023-05-09T12:59:26;26.70;75.60
5899;DHT22;2975;50.956;6.962;2023-05-09T13:01:56;26.70;75.10
5899;DHT22;2975;50.956;6.962;2023-05-09T13:04:23;26.70;75.30
5899;DHT22;2975;50.956;6.962;2023-05-09T13:06:51;26.60;75.20
5899;DHT22;2975;50.956;6.962;2023-05-09T13:09:16;26.60;75.30
5899;DHT22;2975;50.956;6.962;2023-05-09T13:11:43;26.40;77.00
5899;DHT22;2975;50.956;6.962;2023-05-09T13:14:09;26.10;77.40
5899;DHT22;2975;50.956;6.962;2023-05-09T13:16:35;25.80;77.40
5899;DHT22;2975;50.956;6.962;2023-05-09T13:19:00;25.40;76.60
5899;DHT22;2975;50.956;6.962;2023-05-09T13:21:26;25.60;74.60
5899;DHT22;2975;50.956;6.962;2023-05-09T13:23:52;25.60;76.20
5899;DHT22;2975;50.956;6.962;2023-05-09T13:26:17;25.40;75.60
5899;DHT22;2975;50.956;6.962;2023-05-09T13:28:43;25.20;76.70
5899;DHT22;2975;50.956;6.962;2023-05-09T13:31:09;25.00;77.70
5899;DHT22;2975;50.956;6.962;2023-05-09T13:33:34;25.10;77.90
5899;DHT22;2975;50.956;6.962;2023-05-09T13:36:00;25.20;77.00
5899;DHT22;2975;50.956;6.962;2023-05-09T13:38:26;25.20;76.20
5899;DHT22;2975;50.956;6.962;2023-05-09T13:40:55;25.10;76.90
5899;DHT22;2975;50.956;6.962;2023-05-09T13:43:21;25.20;77.30
5899;DHT22;2975;50.956;6.962;2023-05-09T13:45:47;25.20;77.00
5899;DHT22;2975;50.956;6.962;2023-05-09T13:48:12;25.10;77.30
5899;DHT22;2975;50.956;6.962;2023-05-09T13:50:38;25.00;78.00
5899;DHT22;2975;50.956;6.962;2023-05-09T13:53:03;24.80;77.70
5899;DHT22;2975;50.956;6.962;2023-05-09T13:55:29;24.60;78.20
5899;DHT22;2975;50.956;6.962;2023-05-09T13:57:55;24.60;78.80
5899;DHT22;2975;50.956;6.962;2023-05-09T14:00:21;24.50;78.90
5899;DHT22;2975;50.956;6.962;2023-05-09T14:02:50;24.50;80.00
5899;DHT22;2975;50.956;6.962;2023-05-09T14:05:15;24.50;79.00
5899;DHT22;2975;50.956;6.962;2023-05-09T14:07:41;24.50;78.90
5899;DHT22;2975;50.956;6.962;2023-05-09T14:10:07;24.50;78.00
5899;DHT22;2975;50.956;6.962;2023-05-09T14:12:33;24.40;79.20
5899;DHT22;2975;50.956;6.962;2023-05-09T14:14:59;24.30;79.90
5899;DHT22;2975;50.956;6.962;2023-05-09T14:17:24;24.30;79.70
5899;DHT22;2975;50.956;6.962;2023-05-09T14:19:50;24.10;79.20
5899;DHT22;2975;50.956;6.962;2023-05-09T14:22:15;23.90;79.50
5899;DHT22;2975;50.956;6.962;2023-05-09T14:24:41;24.00;80.10
5899;DHT22;2975;50.956;6.962;2023-05-09T14:27:07;24.00;82.70
5899;DHT22;2975;50.956;6.962;2023-05-09T14:29:32;23.80;83.30
5899;DHT22;2975;50.956;6.962;2023-05-09T14:32:01;23.00;90.40
5899;DHT22;2975;50.956;6.962;2023-05-09T14:34:26;22.10;95.70
5899;DHT22;2975;50.956;6.962;2023-05-09T14:36:52;21.40;99.90
5899;DHT22;2975;50.956;6.962;2023-05-09T14:39:18;21.00;99.90
5899;DHT22;2975;50.956;6.962;2023-05-09T14:41:44;20.80;99.90
5899;DHT22;2975;50.956;6.962;2023-05-09T14:44:13;20.70;99.90
5899;DHT22;2975;50.956;6.962;2023-05-09T14:46:38;20.70;99.90
5899;DHT22;2975;50.956;6.962;2023-05-09T14:49:04;20.80;99.90
5899;DHT22;2975;50.956;6.962;2023-05-09T14:51:30;20.70;99.90
5899;DHT22;2975;50.956;6.962;2023-05-09T14:53:57;20.50;99.90
5899;DHT22;2975;50.956;6.962;2023-05-09T14:56:23;20.30;99.90
5899;DHT22;2975;50.956;6.962;2023-05-09T14:58:49;20.10;99.90
5899;DHT22;2975;50.956;6.962;2023-05-09T15:01:14;20.10;99.90
5899;DHT22;2975;50.956;6.962;2023-05-09T15:03:40;20.10;99.90
5899;DHT22;2975;50.956;6.962;2023-05-09T15:06:06;20.10;99.90
5899;DHT22;2975;50.956;6.962;2023-05-09T15:08:31;20.10;99.90
5899;DHT22;2975;50.956;6.962;2023-05-09T15:10:59;20.10;99.90
5899;DHT22;2975;50.956;6.962;2023-05-09T15:13:25;20.10;99.90
5899;DHT22;2975;50.956;6.962;2023-05-09T15:15:50;20.00;99.90
5899;DHT22;2975;50.956;6.962;2023-05-09T15:18:16;20.00;99.90
5899;DHT22;2975;50.956;6.962;2023-05-09T15:20:43;19.90;99.90
5899;DHT22;2975;50.956;6.962;2023-05-09T15:23:09;19.80;99.90
5899;DHT22;2975;50.956;6.962;2023-05-09T15:25:35;19.80;99.90
5899;DHT22;2975;50.956;6.962;2023-05-09T15:28:00;19.80;99.90
5899;DHT22;2975;50.956;6.962;2023-05-09T15:30:26;19.80;99.90
5899;DHT22;2975;50.956;6.962;2023-05-09T15:32:52;19.70;99.90
5899;DHT22;2975;50.956;6.962;2023-05-09T15:35:17;19.70;99.90
5899;DHT22;2975;50.956;6.962;2023-05-09T15:37:44;19.70;99.90
5899;DHT22;2975;50.956;6.962;2023-05-09T15:40:09;19.80;99.90
5899;DHT22;2975;50.956;6.962;2023-05-09T15:42:37;19.80;99.90
5899;DHT22;2975;50.956;6.962;2023-05-09T15:45:03;19.70;99.90
5899;DHT22;2975;50.956;6.962;2023-05-09T15:47:29;19.60;99.90
5899;DHT22;2975;50.956;6.962;2023-05-09T15:49:54;19.50;99.90
5899;DHT22;2975;50.956;6.962;2023-05-09T15:52:20;19.40;99.90
5899;DHT22;2975;50.956;6.962;2023-05-09T15:54:45;19.30;99.90
5899;DHT22;2975;50.956;6.962;2023-05-09T15:57:12;19.20;99.90
5899;DHT22;2975;50.956;6.962;2023-05-09T15:59:38;19.20;99.90
5899;DHT22;2975;50.956;6.962;2023-05-09T16:02:03;19.20;99.90
5899;DHT22;2975;50.956;6.962;2023-05-09T16:04:29;19.20;99.90
5899;DHT22;2975;50.956;6.962;2023-05-09T16:06:55;19.10;99.90
5899;DHT22;2975;50.956;6.962;2023-05-09T16:09:21;19.10;99.90
5899;DHT22;2975;50.956;6.962;2023-05-09T16:11:46;19.10;99.90
5899;DHT22;2975;50.956;6.962;2023-05-09T16:14:12;19.10;99.90
5899;DHT22;2975;50.956;6.962;2023-05-09T16:16:39;19.10;99.90
5899;DHT22;2975;50.956;6.962;2023-05-09T16:19:05;19.10;99.90
5899;DHT22;2975;50.956;6.962;2023-05-09T16:21:31;19.00;99.90
5899;DHT22;2975;50.956;6.962;2023-05-09T16:23:57;19.00;99.90
5899;DHT22;2975;50.956;6.962;2023-05-09T16:26:24;19.00;99.90
5899;DHT22;2975;50.956;6.962;2023-05-09T16:28:50;18.90;99.90